map of SNG home
SNG - Airport
Location
City:  San Ignacio de Velasco, Velasco, Santa Cruz, Bolivia
Name:Capitán Av. Juan Cochamanidis Airport
ICAO:SLSI
IATA:SNG

Details
Type:Airport (Aerodrome, Airfield)
Latitude:16°23'04"S (-16.384443)
Longitude:60°57'46"W (-60.962777)
Elevation:1354 ft (413 m)
Variation:14.05°W (WMM2015 magnetic declination)
-0.18° annual change
Runways:1
Longest:3937 ft (1200 m)

Time
Time Zone:UTC-4
Local Time:

Weather
METAR:SLSI 152300Z 00000KT 9999 NSC 30/21 Q1009

Related Locations
Nearby:
Farthest:RPUG: 12363 mi / 19896 km
Lingayen, Luzon Island, PH

Find:

   beyond  
but within

Other Information
Maps:
NOTAMs:
Links:
Sources:

  
  • flag of Bolivia
  • flag of Santa Cruz
  

Sectional Chart

Flight Planning
at skyvector.com

Satellite Image

Google Maps Satellite view

 

Copyright © 2004-2018 Karl L. Swartz. All rights reserved.
The Great Circle Mapper name and logo are trademarks of the Great Circle Mapper.
All other trademarks mentioned herein belong to their respective owners.
Please see credits for attibutions and further copyright information.

  Follow gcmap on Facebook Follow gcmap on Twitter Follow gcmap on Google+ GCmap on LinkedIn

hCard Microformat

Geo Microformat